sensor_id;sensor_type;location;lat;lon;timestamp;temperature;humidity
21590;DHT22;10957;50.968;6.828;2023-04-01T00:02:21;10.50;1.00
21590;DHT22;10957;50.968;6.828;2023-04-01T00:07:22;10.60;1.00
21590;DHT22;10957;50.968;6.828;2023-04-01T00:12:23;10.30;1.00
21590;DHT22;10957;50.968;6.828;2023-04-01T00:17:26;10.30;1.00
21590;DHT22;10957;50.968;6.828;2023-04-01T00:22:28;10.30;1.00
21590;DHT22;10957;50.968;6.828;2023-04-01T00:27:29;10.60;1.00
21590;DHT22;10957;50.968;6.828;2023-04-01T00:32:30;10.50;1.00
21590;DHT22;10957;50.968;6.828;2023-04-01T00:37:34;10.50;1.00
21590;DHT22;10957;50.968;6.828;2023-04-01T00:42:36;10.50;1.00
21590;DHT22;10957;50.968;6.828;2023-04-01T00:47:37;10.30;1.00
21590;DHT22;10957;50.968;6.828;2023-04-01T00:52:39;10.30;1.00
21590;DHT22;10957;50.968;6.828;2023-04-01T00:57:42;10.50;1.00
21590;DHT22;10957;50.968;6.828;2023-04-01T01:02:45;10.30;1.00
21590;DHT22;10957;50.968;6.828;2023-04-01T01:08:13;10.60;1.00
21590;DHT22;10957;50.968;6.828;2023-04-01T01:13:33;10.50;1.00
21590;DHT22;10957;50.968;6.828;2023-04-01T01:18:53;10.70;1.00
21590;DHT22;10957;50.968;6.828;2023-04-01T01:30:12;10.50;1.00
21590;DHT22;10957;50.968;6.828;2023-04-01T01:35:33;10.50;1.00
21590;DHT22;10957;50.968;6.828;2023-04-01T01:40:42;10.20;1.00
21590;DHT22;10957;50.968;6.828;2023-04-01T01:45:48;10.20;1.00
21590;DHT22;10957;50.968;6.828;2023-04-01T01:50:51;10.10;20.40
21590;DHT22;10957;50.968;6.828;2023-04-01T01:55:53;10.00;73.20
21590;DHT22;10957;50.968;6.828;2023-04-01T02:00:58;10.10;99.90
21590;DHT22;10957;50.968;6.828;2023-04-01T02:06:05;9.50;99.90
21590;DHT22;10957;50.968;6.828;2023-04-01T02:11:11;9.90;99.90
21590;DHT22;10957;50.968;6.828;2023-04-01T02:16:37;9.80;99.90
21590;DHT22;10957;50.968;6.828;2023-04-01T02:21:42;10.00;99.90
21590;DHT22;10957;50.968;6.828;2023-04-01T02:26:48;9.70;99.90
21590;DHT22;10957;50.968;6.828;2023-04-01T02:31:51;9.60;99.90
21590;DHT22;10957;50.968;6.828;2023-04-01T02:36:55;9.50;99.90
21590;DHT22;10957;50.968;6.828;2023-04-01T02:41:56;9.50;99.90
21590;DHT22;10957;50.968;6.828;2023-04-01T02:46:58;9.60;99.90
21590;DHT22;10957;50.968;6.828;2023-04-01T02:51:59;9.50;99.90
21590;DHT22;10957;50.968;6.828;2023-04-01T02:57:01;9.30;99.90
21590;DHT22;10957;50.968;6.828;2023-04-01T03:02:02;9.50;99.90
21590;DHT22;10957;50.968;6.828;2023-04-01T03:07:03;9.40;99.90
21590;DHT22;10957;50.968;6.828;2023-04-01T03:12:06;9.60;99.90
21590;DHT22;10957;50.968;6.828;2023-04-01T03:17:15;9.40;99.90
21590;DHT22;10957;50.968;6.828;2023-04-01T03:22:17;9.80;99.90
21590;DHT22;10957;50.968;6.828;2023-04-01T03:27:22;9.60;99.90
21590;DHT22;10957;50.968;6.828;2023-04-01T03:32:25;9.50;99.90
21590;DHT22;10957;50.968;6.828;2023-04-01T03:37:28;9.40;99.90
21590;DHT22;10957;50.968;6.828;2023-04-01T03:42:30;9.50;99.90
21590;DHT22;10957;50.968;6.828;2023-04-01T03:47:32;9.60;99.90
21590;DHT22;10957;50.968;6.828;2023-04-01T03:52:34;9.40;99.90
21590;DHT22;10957;50.968;6.828;2023-04-01T03:57:35;9.80;99.90
21590;DHT22;10957;50.968;6.828;2023-04-01T04:02:48;9.60;99.90
21590;DHT22;10957;50.968;6.828;2023-04-01T04:07:55;9.70;1.00
21590;DHT22;10957;50.968;6.828;2023-04-01T04:12:56;9.70;1.00
21590;DHT22;10957;50.968;6.828;2023-04-01T04:18:00;9.50;1.00
21590;DHT22;10957;50.968;6.828;2023-04-01T04:23:01;9.50;1.00
21590;DHT22;10957;50.968;6.828;2023-04-01T04:28:03;9.70;99.90
21590;DHT22;10957;50.968;6.828;2023-04-01T04:33:05;9.60;1.00
21590;DHT22;10957;50.968;6.828;2023-04-01T04:38:06;9.70;1.00
21590;DHT22;10957;50.968;6.828;2023-04-01T04:43:11;9.60;1.00
21590;DHT22;10957;50.968;6.828;2023-04-01T04:48:15;9.40;1.00
21590;DHT22;10957;50.968;6.828;2023-04-01T04:53:21;9.50;1.00
21590;DHT22;10957;50.968;6.828;2023-04-01T04:58:22;9.30;1.00
21590;DHT22;10957;50.968;6.828;2023-04-01T05:03:24;9.60;1.00
21590;DHT22;10957;50.968;6.828;2023-04-01T05:08:26;9.70;1.00
21590;DHT22;10957;50.968;6.828;2023-04-01T05:13:28;9.40;1.00
21590;DHT22;10957;50.968;6.828;2023-04-01T05:18:29;9.60;1.00
21590;DHT22;10957;50.968;6.828;2023-04-01T05:23:31;9.40;1.00
21590;DHT22;10957;50.968;6.828;2023-04-01T05:28:34;9.60;1.00
21590;DHT22;10957;50.968;6.828;2023-04-01T05:33:35;9.60;1.00
21590;DHT22;10957;50.968;6.828;2023-04-01T05:38:38;9.80;1.00
21590;DHT22;10957;50.968;6.828;2023-04-01T05:43:43;9.70;1.00
21590;DHT22;10957;50.968;6.828;2023-04-01T05:49:19;9.70;18.60
21590;DHT22;10957;50.968;6.828;2023-04-01T05:54:20;9.70;38.20
21590;DHT22;10957;50.968;6.828;2023-04-01T05:59:22;9.70;66.60
21590;DHT22;10957;50.968;6.828;2023-04-01T06:04:24;9.70;76.20
21590;DHT22;10957;50.968;6.828;2023-04-01T06:09:27;10.00;92.30
21590;DHT22;10957;50.968;6.828;2023-04-01T06:14:47;9.90;98.10
21590;DHT22;10957;50.968;6.828;2023-04-01T06:20:19;9.90;99.90
21590;DHT22;10957;50.968;6.828;2023-04-01T06:25:39;10.00;99.90
21590;DHT22;10957;50.968;6.828;2023-04-01T06:41:36;9.90;64.90
21590;DHT22;10957;50.968;6.828;2023-04-01T06:46:52;10.10;48.40
21590;DHT22;10957;50.968;6.828;2023-04-01T06:52:26;10.00;12.10
21590;DHT22;10957;50.968;6.828;2023-04-01T06:57:53;10.30;1.00
21590;DHT22;10957;50.968;6.828;2023-04-01T07:08:25;10.20;1.00
21590;DHT22;10957;50.968;6.828;2023-04-01T07:19:08;10.00;1.00
21590;DHT22;10957;50.968;6.828;2023-04-01T07:24:33;10.00;1.00
21590;DHT22;10957;50.968;6.828;2023-04-01T07:29:41;10.20;1.00
21590;DHT22;10957;50.968;6.828;2023-04-01T07:50:26;10.30;1.00
21590;DHT22;10957;50.968;6.828;2023-04-01T07:55:30;10.40;1.00
21590;DHT22;10957;50.968;6.828;2023-04-01T08:06:27;10.20;11.90
21590;DHT22;10957;50.968;6.828;2023-04-01T08:11:53;10.20;20.30
21590;DHT22;10957;50.968;6.828;2023-04-01T08:22:53;9.90;16.70
21590;DHT22;10957;50.968;6.828;2023-04-01T08:28:13;10.50;17.40
21590;DHT22;10957;50.968;6.828;2023-04-01T08:33:25;10.30;22.20
21590;DHT22;10957;50.968;6.828;2023-04-01T08:43:46;10.60;1.00
21590;DHT22;10957;50.968;6.828;2023-04-01T09:05:38;10.50;1.00
21590;DHT22;10957;50.968;6.828;2023-04-01T09:50:06;10.70;1.00
21590;DHT22;10957;50.968;6.828;2023-04-01T10:12:49;10.50;1.00
21590;DHT22;10957;50.968;6.828;2023-04-01T10:22:50;10.90;1.00
21590;DHT22;10957;50.968;6.828;2023-04-01T10:49:29;11.30;1.00
21590;DHT22;10957;50.968;6.828;2023-04-01T11:01:05;11.10;1.00
21590;DHT22;10957;50.968;6.828;2023-04-01T11:33:14;11.30;99.90
21590;DHT22;10957;50.968;6.828;2023-04-01T11:38:53;11.50;99.90
21590;DHT22;10957;50.968;6.828;2023-04-01T11:44:24;11.70;99.90
21590;DHT22;10957;50.968;6.828;2023-04-01T12:01:02;11.30;99.90
21590;DHT22;10957;50.968;6.828;2023-04-01T12:11:45;11.50;99.90
21590;DHT22;10957;50.968;6.828;2023-04-01T12:17:15;11.80;99.90
21590;DHT22;10957;50.968;6.828;2023-04-01T12:49:32;11.70;99.90
21590;DHT22;10957;50.968;6.828;2023-04-01T13:16:16;11.80;99.90
21590;DHT22;10957;50.968;6.828;2023-04-01T13:27:09;12.20;99.90
21590;DHT22;10957;50.968;6.828;2023-04-01T13:32:47;12.30;99.90
21590;DHT22;10957;50.968;6.828;2023-04-01T13:43:23;12.00;99.90
21590;DHT22;10957;50.968;6.828;2023-04-01T13:54:10;11.70;99.90
21590;DHT22;10957;50.968;6.828;2023-04-01T13:59:35;11.60;99.90
21590;DHT22;10957;50.968;6.828;2023-04-01T14:10:07;11.30;99.90
21590;DHT22;10957;50.968;6.828;2023-04-01T14:15:33;11.20;99.90
21590;DHT22;10957;50.968;6.828;2023-04-01T14:20:45;11.20;99.90
21590;DHT22;10957;50.968;6.828;2023-04-01T14:42:20;11.60;99.90
21590;DHT22;10957;50.968;6.828;2023-04-01T14:52:33;11.20;1.00
21590;DHT22;10957;50.968;6.828;2023-04-01T14:57:36;11.60;1.00
21590;DHT22;10957;50.968;6.828;2023-04-01T15:03:18;11.40;99.90
21590;DHT22;10957;50.968;6.828;2023-04-01T15:08:26;11.50;99.90
21590;DHT22;10957;50.968;6.828;2023-04-01T15:24:22;11.30;99.90
21590;DHT22;10957;50.968;6.828;2023-04-01T15:29:50;11.20;99.90
21590;DHT22;10957;50.968;6.828;2023-04-01T15:51:46;11.10;99.90
21590;DHT22;10957;50.968;6.828;2023-04-01T16:02:22;11.10;99.90
21590;DHT22;10957;50.968;6.828;2023-04-01T16:18:55;11.10;1.00
21590;DHT22;10957;50.968;6.828;2023-04-01T16:45:45;10.70;1.00
21590;DHT22;10957;50.968;6.828;2023-04-01T16:51:03;10.50;1.00
21590;DHT22;10957;50.968;6.828;2023-04-01T16:56:21;10.80;1.00
21590;DHT22;10957;50.968;6.828;2023-04-01T17:01:29;10.80;1.00
21590;DHT22;10957;50.968;6.828;2023-04-01T17:11:53;10.60;1.00
21590;DHT22;10957;50.968;6.828;2023-04-01T17:22:35;10.60;1.00
21590;DHT22;10957;50.968;6.828;2023-04-01T17:27:51;10.60;1.00
21590;DHT22;10957;50.968;6.828;2023-04-01T17:59:39;10.20;1.00
21590;DHT22;10957;50.968;6.828;2023-04-01T18:05:17;10.20;1.00
21590;DHT22;10957;50.968;6.828;2023-04-01T18:10:26;10.30;1.00
21590;DHT22;10957;50.968;6.828;2023-04-01T18:21:14;10.00;1.00
21590;DHT22;10957;50.968;6.828;2023-04-01T18:26:23;10.10;1.00
21590;DHT22;10957;50.968;6.828;2023-04-01T18:31:54;10.00;1.00
21590;DHT22;10957;50.968;6.828;2023-04-01T18:37:02;9.80;1.00
21590;DHT22;10957;50.968;6.828;2023-04-01T18:47:47;9.80;1.00
21590;DHT22;10957;50.968;6.828;2023-04-01T18:53:08;9.70;1.00
21590;DHT22;10957;50.968;6.828;2023-04-01T19:08:44;9.80;1.00
21590;DHT22;10957;50.968;6.828;2023-04-01T19:19:02;10.10;1.00
21590;DHT22;10957;50.968;6.828;2023-04-01T19:24:50;9.90;1.00
21590;DHT22;10957;50.968;6.828;2023-04-01T19:45:41;9.70;30.70
21590;DHT22;10957;50.968;6.828;2023-04-01T19:50:55;9.80;39.30
21590;DHT22;10957;50.968;6.828;2023-04-01T19:56:12;9.70;41.70
21590;DHT22;10957;50.968;6.828;2023-04-01T20:01:27;9.90;38.30
21590;DHT22;10957;50.968;6.828;2023-04-01T20:17:00;9.50;75.30
21590;DHT22;10957;50.968;6.828;2023-04-01T20:22:09;9.70;89.70
21590;DHT22;10957;50.968;6.828;2023-04-01T20:27:22;9.80;98.30
21590;DHT22;10957;50.968;6.828;2023-04-01T20:37:42;9.90;99.90
21590;DHT22;10957;50.968;6.828;2023-04-01T20:59:02;9.70;99.90
21590;DHT22;10957;50.968;6.828;2023-04-01T21:04:18;9.70;99.90
21590;DHT22;10957;50.968;6.828;2023-04-01T21:09:40;9.90;99.90
21590;DHT22;10957;50.968;6.828;2023-04-01T21:41:41;9.80;99.90
21590;DHT22;10957;50.968;6.828;2023-04-01T21:52:10;9.70;99.90
21590;DHT22;10957;50.968;6.828;2023-04-01T22:13:22;9.90;99.90
21590;DHT22;10957;50.968;6.828;2023-04-01T22:18:45;9.80;99.90
21590;DHT22;10957;50.968;6.828;2023-04-01T22:29:07;10.00;99.90
21590;DHT22;10957;50.968;6.828;2023-04-01T22:34:25;10.00;99.90
21590;DHT22;10957;50.968;6.828;2023-04-01T22:45:01;9.90;99.90
21590;DHT22;10957;50.968;6.828;2023-04-01T22:50:19;10.40;99.90
21590;DHT22;10957;50.968;6.828;2023-04-01T22:55:27;9.90;99.90
21590;DHT22;10957;50.968;6.828;2023-04-01T23:05:41;9.90;99.90
21590;DHT22;10957;50.968;6.828;2023-04-01T23:10:58;10.10;99.90
21590;DHT22;10957;50.968;6.828;2023-04-01T23:16:00;9.90;99.90
21590;DHT22;10957;50.968;6.828;2023-04-01T23:21:21;9.80;99.90
21590;DHT22;10957;50.968;6.828;2023-04-01T23:26:53;9.80;99.90
21590;DHT22;10957;50.968;6.828;2023-04-01T23:32:00;9.80;99.90
21590;DHT22;10957;50.968;6.828;2023-04-01T23:37:05;9.70;99.90
21590;DHT22;10957;50.968;6.828;2023-04-01T23:47:25;9.50;99.90
21590;DHT22;10957;50.968;6.828;2023-04-01T23:52:31;9.60;99.90
21590;DHT22;10957;50.968;6.828;2023-04-01T23:57:34;9.60;99.90
